Time;durP1;ratioP1;P1;durP2;ratioP2;P2;SDS_P1;SDS_P2;PMS_P1;PMS_P2;Temp;Humidity;BMP_temperature;BMP_pressure;BME280_temperature;BME280_humidity;BME280_pressure;Samples;Min_cycle;Max_cycle;Signal;HPM_P1;HPM_P2
2022/03/17 00:02:21;;;;;;;16.53;14.70;;;;;;;9.85;70.72;100862.56;5033155;28;20757;-81
2022/03/17 00:04:46;;;;;;;16.52;13.63;;;;;;;9.81;71.28;100873.03;5033210;28;20391;-81
2022/03/17 00:07:12;;;;;;;15.13;13.27;;;;;;;9.79;71.68;100879.72;5033462;28;20460;-81
2022/03/17 00:09:38;;;;;;;15.73;12.90;;;;;;;9.77;71.85;100884.56;5033987;28;20410;-81
2022/03/17 00:12:03;;;;;;;17.80;13.70;;;;;;;9.74;72.28;100883.16;5033399;28;20403;-81
2022/03/17 00:14:29;;;;;;;14.83;13.03;;;;;;;9.70;72.58;100881.94;5032964;28;20502;-81
2022/03/17 00:16:54;;;;;;;17.00;13.93;;;;;;;9.70;72.33;100883.81;5029780;28;20898;-81
2022/03/17 00:19:19;;;;;;;16.50;13.80;;;;;;;9.68;71.87;100880.53;5026923;28;20442;-81
2022/03/17 00:21:45;;;;;;;15.45;13.30;;;;;;;9.67;72.17;100878.88;5030235;28;20488;-81
2022/03/17 00:24:10;;;;;;;15.23;13.40;;;;;;;9.63;72.75;100880.38;5030305;28;20395;-81
2022/03/17 00:26:37;;;;;;;18.42;14.05;;;;;;;9.55;72.74;100870.69;5032648;28;20826;-81
2022/03/17 00:29:03;;;;;;;16.88;14.30;;;;;;;9.52;72.95;100881.97;5033096;28;20562;-81
2022/03/17 00:31:29;;;;;;;16.35;12.80;;;;;;;9.52;73.58;100881.13;5033579;28;20406;-81
2022/03/17 00:33:54;;;;;;;15.20;12.70;;;;;;;9.52;73.19;100879.25;5032579;28;21048;-81
2022/03/17 00:36:19;;;;;;;15.83;13.37;;;;;;;9.53;72.96;100874.66;5031876;28;20821;-81
2022/03/17 00:38:45;;;;;;;17.10;13.90;;;;;;;9.51;73.17;100876.78;5033557;28;20391;-81
2022/03/17 00:41:11;;;;;;;15.57;13.70;;;;;;;9.50;73.21;100875.13;5032644;28;20418;-81
2022/03/17 00:43:36;;;;;;;15.33;13.73;;;;;;;9.50;73.15;100880.53;5033026;28;20458;-81
2022/03/17 00:46:01;;;;;;;15.07;13.47;;;;;;;9.47;73.39;100879.13;5033749;28;20486;-81
2022/03/17 00:48:27;;;;;;;17.70;13.57;;;;;;;9.45;73.63;100878.50;5032191;28;20874;-81
2022/03/17 00:50:52;;;;;;;17.67;13.80;;;;;;;9.43;73.75;100879.78;5032655;28;20514;-81
2022/03/17 00:53:17;;;;;;;17.30;13.83;;;;;;;9.40;73.67;100875.66;5033383;28;20882;-81
2022/03/17 00:55:42;;;;;;;18.30;13.50;;;;;;;9.38;74.11;100877.78;5032553;28;20406;-81
2022/03/17 00:58:08;;;;;;;17.77;13.47;;;;;;;9.36;74.22;100882.56;5032509;28;20434;-81
2022/03/17 01:00:34;;;;;;;18.48;14.05;;;;;;;9.33;74.34;100878.47;5032038;28;20406;-81
2022/03/17 01:02:59;;;;;;;16.40;13.50;;;;;;;9.33;74.41;100880.34;5033172;28;20387;-81
2022/03/17 01:05:25;;;;;;;15.10;13.37;;;;;;;9.32;74.49;100878.66;5030139;28;20457;-81
2022/03/17 01:07:53;;;;;;;15.27;13.38;;;;;;;9.32;74.74;100876.78;5033090;28;20477;-81
2022/03/17 01:10:19;;;;;;;19.20;13.95;;;;;;;9.31;74.64;100875.16;5032452;28;20417;-81
2022/03/17 01:12:46;;;;;;;17.05;14.15;;;;;;;9.32;74.21;100873.25;5026023;28;20411;-81
2022/03/17 01:15:15;;;;;;;16.50;13.75;;;;;;;9.32;75.12;100876.78;5027703;28;20427;-81
2022/03/17 01:17:41;;;;;;;16.08;13.23;;;;;;;9.32;74.32;100875.97;5032864;28;20390;-81
2022/03/17 01:20:08;;;;;;;18.88;15.05;;;;;;;9.32;74.44;100878.66;5031813;28;20403;-82
2022/03/17 01:22:34;;;;;;;16.58;14.52;;;;;;;9.32;74.89;100882.19;5032516;28;20486;-81
2022/03/17 01:25:00;;;;;;;17.38;13.00;;;;;;;9.28;74.59;100883.72;5032732;28;20492;-81
2022/03/17 01:27:25;;;;;;;24.20;12.68;;;;;;;9.14;74.93;100887.63;5031982;28;20402;-81
2022/03/17 01:29:51;;;;;;;15.93;12.90;;;;;;;9.09;74.73;100884.75;5030808;28;20468;-81
2022/03/17 01:32:18;;;;;;;15.90;13.98;;;;;;;9.11;74.86;100888.09;5031257;28;20486;-81
2022/03/17 01:34:44;;;;;;;16.55;13.40;;;;;;;9.11;74.81;100893.50;5030697;28;20905;-81
2022/03/17 01:37:09;;;;;;;17.85;13.65;;;;;;;9.10;75.25;100891.00;5032577;28;20403;-81
2022/03/17 01:39:35;;;;;;;19.52;14.55;;;;;;;9.09;75.16;100892.06;5031840;28;20403;-81
2022/03/17 01:42:06;;;;;;;16.35;13.10;;;;;;;9.09;75.35;100890.16;5032551;28;20438;-81
2022/03/17 01:44:32;;;;;;;16.77;13.50;;;;;;;9.09;74.88;100890.16;5031359;28;20407;-81
2022/03/17 01:49:41;;;;;;;16.17;13.10;;;;;;;9.10;75.58;100894.53;5031649;28;20456;-81
2022/03/17 01:52:10;;;;;;;16.55;12.35;;;;;;;9.11;75.56;100892.66;5031894;28;20409;-81
2022/03/17 01:54:36;;;;;;;16.67;13.80;;;;;;;9.11;75.93;100892.66;5031868;28;20894;-81
2022/03/17 01:57:03;;;;;;;17.65;12.45;;;;;;;9.11;76.02;100904.31;5031977;28;20406;-81
2022/03/17 01:59:31;;;;;;;17.17;13.70;;;;;;;9.13;76.08;100891.38;5031738;28;20415;-81
2022/03/17 02:01:57;;;;;;;16.20;13.05;;;;;;;9.14;76.34;100890.34;5030453;28;20898;-81
2022/03/17 02:04:22;;;;;;;21.55;13.05;;;;;;;9.15;76.29;100888.47;5031536;28;20434;-81
2022/03/17 02:06:48;;;;;;;19.70;12.93;;;;;;;9.12;76.33;100889.72;5063556;28;20419;-81
2022/03/17 02:09:14;;;;;;;19.00;12.32;;;;;;;9.10;76.47;100889.13;5025283;28;20414;-81
2022/03/17 02:14:25;;;;;;;17.20;12.35;;;;;;;9.08;76.89;100891.22;5029284;28;20390;-81
2022/03/17 02:16:51;;;;;;;21.77;13.97;;;;;;;9.02;77.13;100892.13;5031938;28;20399;-81
2022/03/17 02:19:18;;;;;;;22.95;12.90;;;;;;;8.98;77.35;100896.34;5031489;28;20430;-81
2022/03/17 02:21:46;;;;;;;22.27;14.70;;;;;;;8.98;77.53;100892.81;5031867;28;20391;-81
2022/03/17 02:26:59;;;;;;;25.13;15.68;;;;;;;9.00;78.38;100898.78;5026699;28;20431;-81
2022/03/17 02:29:24;;;;;;;20.67;15.77;;;;;;;9.03;78.23;100903.75;5059331;28;20740;-81
2022/03/17 02:31:50;;;;;;;21.58;16.05;;;;;;;9.04;77.95;100898.13;5030545;28;20398;-81
2022/03/17 02:34:19;;;;;;;22.83;17.40;;;;;;;9.05;78.16;100902.50;5026160;28;20397;-81
2022/03/17 02:36:49;;;;;;;24.52;17.83;;;;;;;9.05;78.98;100907.06;5030514;28;20810;-81
2022/03/17 02:39:15;;;;;;;27.80;19.13;;;;;;;9.00;79.16;100915.84;5030387;28;21018;-81
2022/03/17 02:41:41;;;;;;;26.30;19.00;;;;;;;8.98;79.47;100911.72;5031474;28;20395;-81
2022/03/17 02:44:06;;;;;;;29.00;19.20;;;;;;;8.98;79.24;100922.53;5030609;28;20399;-81
2022/03/17 02:46:31;;;;;;;25.23;18.60;;;;;;;8.95;79.56;100921.09;5030844;28;20750;-81
2022/03/17 02:48:56;;;;;;;25.17;18.00;;;;;;;8.85;79.81;100921.63;5030462;28;20391;-81
2022/03/17 02:51:22;;;;;;;28.17;17.70;;;;;;;8.72;80.10;100926.31;5029501;28;20485;-81
2022/03/17 02:53:48;;;;;;;28.33;17.80;;;;;;;8.77;79.67;100930.00;5031342;28;20421;-81
2022/03/17 02:56:13;;;;;;;25.08;19.00;;;;;;;8.78;79.52;100933.53;5030737;28;20401;-81
2022/03/17 02:58:38;;;;;;;28.20;19.58;;;;;;;8.78;80.16;100936.22;5030846;28;20403;-81
2022/03/17 03:01:04;;;;;;;26.33;18.10;;;;;;;8.74;79.85;100937.72;5031293;28;20395;-81
2022/03/17 03:03:29;;;;;;;28.40;18.43;;;;;;;8.76;79.90;100936.44;5030382;28;20406;-81
2022/03/17 03:05:54;;;;;;;25.80;19.67;;;;;;;8.77;79.92;100938.09;5025835;28;20420;-81
2022/03/17 03:08:22;;;;;;;24.70;19.20;;;;;;;8.83;79.79;100939.09;5027761;28;20415;-81
2022/03/17 03:10:47;;;;;;;27.30;18.77;;;;;;;8.85;79.72;100937.84;5031202;28;20446;-81
2022/03/17 03:13:13;;;;;;;24.93;19.33;;;;;;;8.89;79.15;100940.09;5022717;28;20935;-81
2022/03/17 03:15:38;;;;;;;25.75;18.90;;;;;;;8.94;79.23;100948.34;5030721;28;20468;-81
2022/03/17 03:18:04;;;;;;;23.20;18.50;;;;;;;9.00;78.15;100953.69;5030481;28;20399;-81
2022/03/17 03:20:30;;;;;;;23.23;19.20;;;;;;;9.03;78.37;100957.81;5030166;28;20410;-81
2022/03/17 03:22:55;;;;;;;26.05;19.55;;;;;;;9.05;77.72;100963.84;5029851;28;20434;-81
2022/03/17 03:25:23;;;;;;;25.40;19.53;;;;;;;9.06;78.07;100965.47;5025838;28;20404;-81
2022/03/17 03:27:48;;;;;;;25.45;19.25;;;;;;;9.05;78.05;100963.84;5029359;28;20403;-81
2022/03/17 03:30:15;;;;;;;27.63;21.93;;;;;;;9.03;77.98;100963.22;5030679;28;20955;-81
2022/03/17 03:32:44;;;;;;;35.75;23.25;;;;;;;9.02;78.39;100967.84;5030742;28;20402;-81
2022/03/17 03:37:54;;;;;;;40.00;24.42;;;;;;;8.95;79.36;100969.75;5022840;28;20404;-81
2022/03/17 03:40:20;;;;;;;38.73;26.87;;;;;;;8.94;80.16;100965.41;5027630;28;20399;-81
2022/03/17 03:42:45;;;;;;;35.17;25.33;;;;;;;8.96;79.96;100971.41;5030746;28;20464;-81
2022/03/17 03:45:11;;;;;;;41.50;26.20;;;;;;;8.94;80.05;100975.38;5030858;28;20438;-80
2022/03/17 03:47:36;;;;;;;37.27;26.77;;;;;;;8.93;80.52;100974.53;5029936;28;20437;-81
2022/03/17 03:50:03;;;;;;;42.13;27.00;;;;;;;8.91;80.83;100983.94;5029916;28;20497;-81
2022/03/17 03:52:28;;;;;;;46.50;28.83;;;;;;;8.93;80.41;100989.94;5031730;28;20438;-81
2022/03/17 03:54:54;;;;;;;40.53;29.07;;;;;;;8.88;81.29;100990.63;5034111;28;20910;-81
2022/03/17 03:57:19;;;;;;;42.17;29.30;;;;;;;8.90;81.08;100991.22;5033747;28;20406;-81
2022/03/17 03:59:44;;;;;;;44.15;29.15;;;;;;;8.85;81.33;100994.59;5034293;28;20393;-81
2022/03/17 04:02:10;;;;;;;45.17;29.27;;;;;;;8.89;81.63;100992.28;5033871;28;20426;-81
2022/03/17 04:04:40;;;;;;;48.63;31.70;;;;;;;8.91;81.59;100998.28;5032072;28;20616;-81
2022/03/17 04:07:08;;;;;;;49.58;30.75;;;;;;;8.90;82.22;100993.06;5032638;28;20493;-82
2022/03/17 04:09:35;;;;;;;46.95;31.95;;;;;;;8.91;82.13;100997.44;5020251;28;20427;-81
2022/03/17 04:12:02;;;;;;;52.72;35.10;;;;;;;8.94;81.96;101005.94;5032431;28;20418;-81
2022/03/17 04:14:27;;;;;;;50.97;35.20;;;;;;;8.93;82.58;101004.28;5031157;28;20410;-81
2022/03/17 04:16:56;;;;;;;48.87;33.70;;;;;;;8.95;82.18;101007.59;5034035;28;20885;-81
2022/03/17 04:19:21;;;;;;;60.95;38.25;;;;;;;8.94;82.36;101000.53;5033375;28;20470;-81
2022/03/17 04:21:48;;;;;;;59.07;35.93;;;;;;;8.96;82.68;101003.03;5033888;28;20414;-81
2022/03/17 04:24:14;;;;;;;54.00;35.73;;;;;;;8.98;82.30;101001.75;5032343;28;20406;-81
2022/03/17 04:26:39;;;;;;;52.80;35.05;;;;;;;9.00;82.10;101004.22;5025102;28;20527;-81
2022/03/17 04:29:06;;;;;;;55.80;35.67;;;;;;;8.97;82.52;101002.78;5029076;28;20424;-81
2022/03/17 04:31:33;;;;;;;57.13;35.97;;;;;;;8.95;82.39;100996.78;5030904;28;20727;-81
2022/03/17 04:33:58;;;;;;;56.15;35.83;;;;;;;8.96;82.81;101001.13;5030928;28;20391;-81
2022/03/17 04:36:24;;;;;;;61.27;36.90;;;;;;;8.95;82.67;101004.06;5029188;28;20784;-81
2022/03/17 04:38:50;;;;;;;57.97;36.70;;;;;;;8.92;82.81;100999.94;5026101;28;20746;-81
2022/03/17 04:41:17;;;;;;;57.20;35.47;;;;;;;8.87;83.07;100997.06;5033313;28;20395;-81
2022/03/17 04:43:42;;;;;;;51.38;35.10;;;;;;;8.88;82.55;100996.03;5022406;28;20391;-81
2022/03/17 04:46:08;;;;;;;57.87;36.93;;;;;;;8.92;83.07;101002.66;5032347;28;20391;-81
2022/03/17 04:48:34;;;;;;;55.30;35.80;;;;;;;8.94;83.11;100999.72;5031745;28;20399;-81
2022/03/17 04:50:59;;;;;;;58.60;37.40;;;;;;;8.93;82.74;101008.84;5033233;28;20419;-81
2022/03/17 04:53:27;;;;;;;56.60;37.97;;;;;;;8.92;82.74;101007.22;5028591;28;20416;-81
2022/03/17 04:56:04;;;;;;;52.47;36.05;;;;;;;8.92;82.97;101002.66;5033285;28;20494;-82
2022/03/17 04:58:31;;;;;;;55.10;37.92;;;;;;;8.93;82.85;101006.16;5033099;28;20399;-81
2022/03/17 05:00:58;;;;;;;58.92;38.17;;;;;;;8.95;82.83;101012.19;5030740;28;20469;-81
2022/03/17 05:03:24;;;;;;;56.10;37.00;;;;;;;8.96;83.07;101011.16;5030422;28;20399;-81
2022/03/17 05:05:50;;;;;;;51.35;36.60;;;;;;;8.96;83.00;101019.25;5030222;28;20399;-81
2022/03/17 05:08:15;;;;;;;64.65;41.67;;;;;;;8.93;83.26;101023.19;5033173;28;20759;-81
2022/03/17 05:10:41;;;;;;;61.57;40.53;;;;;;;8.88;83.39;101024.91;5010643;28;20499;-81
2022/03/17 05:13:08;;;;;;;60.87;39.17;;;;;;;8.88;83.91;101027.63;5020577;28;20410;-81
2022/03/17 05:15:35;;;;;;;64.22;41.45;;;;;;;8.91;83.74;101038.81;5032536;28;20449;-80
2022/03/17 05:18:02;;;;;;;67.05;42.92;;;;;;;8.89;83.60;101037.41;5030639;28;20399;-81
2022/03/17 05:20:27;;;;;;;68.97;42.30;;;;;;;8.91;83.21;101046.09;5024786;28;20442;-81
2022/03/17 05:22:53;;;;;;;62.67;42.33;;;;;;;8.94;83.08;101045.66;5023745;28;20769;-82
2022/03/17 05:25:19;;;;;;;63.22;41.10;;;;;;;8.95;83.22;101047.31;5026786;28;20498;-81
2022/03/17 05:27:46;;;;;;;61.17;41.87;;;;;;;8.95;82.88;101041.91;5019239;28;20401;-80
2022/03/17 05:30:16;;;;;;;59.10;40.73;;;;;;;8.96;83.25;101054.41;5020335;28;20434;-80
2022/03/17 05:32:45;;;;;;;54.22;37.03;;;;;;;8.96;83.08;101055.19;5029946;28;20552;-81
2022/03/17 05:35:13;;;;;;;50.97;36.05;;;;;;;8.97;82.97;101059.56;5027629;28;20408;-81
2022/03/17 05:37:39;;;;;;;53.70;37.45;;;;;;;8.97;82.79;101064.97;5022522;28;20397;-81
2022/03/17 05:40:08;;;;;;;53.33;38.13;;;;;;;8.94;82.61;101062.72;5028760;28;20766;-81
2022/03/17 05:42:33;;;;;;;56.03;39.30;;;;;;;8.93;82.67;101069.16;5031322;28;20755;-82
2022/03/17 05:44:59;;;;;;;51.40;36.72;;;;;;;8.96;82.94;101073.31;5030348;28;20474;-82
2022/03/17 05:47:24;;;;;;;47.77;34.80;;;;;;;8.96;83.00;101079.53;5031814;28;20461;-80
2022/03/17 05:49:49;;;;;;;46.33;34.00;;;;;;;8.98;82.20;101082.03;5031911;28;20412;-82
2022/03/17 05:52:15;;;;;;;45.73;33.57;;;;;;;9.00;82.15;101086.16;5027565;28;20405;-83
2022/03/17 05:54:41;;;;;;;44.28;33.35;;;;;;;8.97;81.83;101091.16;5030588;28;20465;-84
2022/03/17 05:57:10;;;;;;;43.88;32.78;;;;;;;8.95;81.79;101090.56;5029541;28;20414;-85
2022/03/17 05:59:39;;;;;;;46.38;32.63;;;;;;;8.95;82.31;101094.13;5026939;28;20415;-83
2022/03/17 06:02:05;;;;;;;48.05;32.63;;;;;;;8.98;81.90;101095.53;5029371;28;20414;-87
2022/03/17 06:04:30;;;;;;;42.50;31.27;;;;;;;8.98;81.83;101079.31;5022745;28;20422;-85
2022/03/17 06:06:59;;;;;;;44.80;31.23;;;;;;;8.99;81.46;101089.09;5027510;28;20898;-84
2022/03/17 06:09:24;;;;;;;43.85;32.35;;;;;;;9.03;81.54;101112.75;5059649;28;20410;-83
2022/03/17 06:11:50;;;;;;;43.77;32.50;;;;;;;9.04;81.34;101113.59;5030696;28;20402;-81
2022/03/17 06:14:15;;;;;;;46.78;36.47;;;;;;;9.06;80.79;101112.31;5030991;28;20433;-81
2022/03/17 06:16:41;;;;;;;46.33;33.63;;;;;;;9.08;80.81;101125.63;5029701;28;20430;-82
2022/03/17 06:19:06;;;;;;;44.03;31.80;;;;;;;9.08;81.34;101125.63;5027652;28;20469;-81
2022/03/17 06:21:32;;;;;;;47.42;33.15;;;;;;;9.11;80.99;101142.25;5028640;28;20494;-82
2022/03/17 06:23:57;;;;;;;43.77;32.30;;;;;;;9.07;81.39;101151.84;5030179;28;20415;-81
2022/03/17 06:26:23;;;;;;;43.57;31.97;;;;;;;9.04;81.70;101148.72;5028256;28;20409;-81
2022/03/17 06:28:48;;;;;;;47.00;30.67;;;;;;;9.07;81.41;101145.59;5026991;28;20414;-82
2022/03/17 06:31:13;;;;;;;46.13;33.17;;;;;;;9.09;80.77;101155.13;5030394;28;20433;-82
2022/03/17 06:33:38;;;;;;;49.10;34.13;;;;;;;9.03;81.44;101158.72;5029529;28;20441;-82
2022/03/17 06:36:04;;;;;;;74.97;44.17;;;;;;;9.04;81.33;101167.66;5030307;28;20497;-84
2022/03/17 06:38:29;;;;;;;45.07;31.63;;;;;;;9.05;80.92;101170.16;5026829;28;20404;-81
2022/03/17 06:40:55;;;;;;;41.97;31.23;;;;;;;9.09;80.58;101179.47;5023009;28;20431;-82
2022/03/17 06:43:20;;;;;;;47.00;32.13;;;;;;;9.12;81.07;101186.34;5029996;28;20453;-82
2022/03/17 06:45:45;;;;;;;43.70;31.37;;;;;;;9.13;80.33;101183.41;5029761;28;20412;-81
2022/03/17 06:48:10;;;;;;;44.60;32.80;;;;;;;9.12;80.64;101180.94;5030608;28;20762;-82
2022/03/17 06:50:36;;;;;;;45.33;33.13;;;;;;;9.13;81.08;101191.50;5027964;28;20426;-82
2022/03/17 06:53:02;;;;;;;44.40;32.83;;;;;;;9.17;80.66;101191.91;5063425;28;20402;-82
2022/03/17 06:55:27;;;;;;;53.30;34.47;;;;;;;9.18;81.04;101202.53;5031273;28;20402;-82
2022/03/17 06:57:53;;;;;;;49.20;34.40;;;;;;;9.17;81.17;101200.84;5030978;28;20403;-82
2022/03/17 07:00:19;;;;;;;53.20;35.40;;;;;;;9.17;81.66;101202.72;5029521;28;20407;-82
2022/03/17 07:02:46;;;;;;;53.35;34.47;;;;;;;9.18;81.75;101198.97;5029376;28;20407;-83
2022/03/17 07:05:11;;;;;;;55.27;37.07;;;;;;;9.20;81.90;101202.28;5029521;28;20910;-80
2022/03/17 07:07:37;;;;;;;46.80;36.07;;;;;;;9.24;81.54;101208.94;5018694;28;20458;-81
2022/03/17 07:10:06;;;;;;;49.27;35.83;;;;;;;9.27;81.35;101209.31;5027947;28;20429;-83
2022/03/17 07:12:32;;;;;;;57.65;39.15;;;;;;;9.25;81.90;101214.09;5030100;28;20396;-81
2022/03/17 07:14:57;;;;;;;61.53;41.67;;;;;;;9.30;82.34;101208.06;5029693;28;20750;-82
2022/03/17 07:17:26;;;;;;;58.10;39.57;;;;;;;9.36;82.22;101204.47;5029545;28;20784;-81
2022/03/17 07:22:24;;;;;;;60.35;40.03;;;;;;;9.39;81.87;101206.72;5025714;28;20403;-81
2022/03/17 07:24:49;;;;;;;64.53;43.72;;;;;;;9.39;82.32;101212.13;5029463;28;20438;-81
2022/03/17 07:27:14;;;;;;;62.83;41.17;;;;;;;9.39;82.45;101212.97;5029914;28;20837;-82
2022/03/17 07:29:40;;;;;;;63.00;42.30;;;;;;;9.48;82.45;101220.84;5032883;28;20426;-81
2022/03/17 07:32:05;;;;;;;61.77;40.43;;;;;;;9.54;81.70;101215.38;5026967;28;20839;-81
2022/03/17 07:34:30;;;;;;;59.03;39.05;;;;;;;9.59;81.74;101217.41;5051790;28;20411;-82
2022/03/17 07:36:56;;;;;;;58.13;40.23;;;;;;;9.66;81.69;101219.03;5032589;28;20430;-81
2022/03/17 07:39:21;;;;;;;57.17;39.43;;;;;;;9.73;81.50;101224.38;5032854;28;20431;-81
2022/03/17 07:41:46;;;;;;;62.73;40.57;;;;;;;9.81;81.52;101240.38;5025589;28;20414;-81
2022/03/17 07:44:13;;;;;;;60.78;42.20;;;;;;;9.86;81.55;101238.63;5064963;28;20763;-81
2022/03/17 07:46:39;;;;;;;61.85;42.47;;;;;;;9.92;81.57;101239.63;5031890;28;20407;-82
2022/03/17 07:49:04;;;;;;;68.88;43.85;;;;;;;9.82;81.28;101247.41;5032866;28;20407;-82
2022/03/17 07:51:30;;;;;;;63.83;45.03;;;;;;;9.82;81.59;101244.72;5034361;28;20490;-82
2022/03/17 07:53:56;;;;;;;58.67;41.30;;;;;;;9.86;81.31;101251.34;5034164;28;20468;-82
2022/03/17 07:56:21;;;;;;;55.67;40.20;;;;;;;9.85;80.88;101255.09;5030674;28;20882;-81
2022/03/17 07:58:47;;;;;;;57.77;40.33;;;;;;;9.78;81.26;101257.06;5032361;28;20409;-82
2022/03/17 08:01:12;;;;;;;50.90;38.87;;;;;;;9.77;81.36;101248.09;5031783;28;20502;-81
2022/03/17 08:03:41;;;;;;;61.70;40.38;;;;;;;9.80;81.21;101257.66;5032656;28;20703;-81
2022/03/17 08:06:06;;;;;;;62.20;41.00;;;;;;;9.78;81.68;101260.56;5027375;28;20782;-82
2022/03/17 08:08:34;;;;;;;55.93;38.67;;;;;;;9.76;81.33;101259.13;5031909;28;20443;-81
2022/03/17 08:10:59;;;;;;;52.78;39.38;;;;;;;9.83;81.04;101262.63;5026133;28;20433;-81
2022/03/17 08:13:25;;;;;;;57.07;41.67;;;;;;;9.88;81.08;101260.91;5034127;28;20391;-81
2022/03/17 08:15:51;;;;;;;59.27;40.93;;;;;;;10.04;80.48;101259.53;5034546;28;20434;-82
2022/03/17 08:18:16;;;;;;;51.23;40.33;;;;;;;10.10;79.78;101266.78;5032228;28;20419;-81
2022/03/17 08:20:42;;;;;;;53.27;40.07;;;;;;;10.22;79.31;101265.00;5024577;28;20968;-81
2022/03/17 08:23:08;;;;;;;53.40;40.13;;;;;;;10.30;78.78;101267.44;5032580;28;20410;-81
2022/03/17 08:25:39;;;;;;;51.65;40.30;;;;;;;10.37;78.16;101278.22;5036305;28;20738;-81
2022/03/17 08:28:05;;;;;;;53.10;40.38;;;;;;;10.38;78.08;101275.28;5033590;28;20397;-82
2022/03/17 08:30:32;;;;;;;50.87;38.27;;;;;;;10.39;78.49;101278.81;5060837;28;20418;-81
2022/03/17 08:32:58;;;;;;;50.35;37.35;;;;;;;10.28;78.68;101283.06;5024987;28;20403;-81
2022/03/17 08:35:23;;;;;;;48.87;36.63;;;;;;;10.21;79.12;101282.31;5042755;28;20420;-81
2022/03/17 08:37:48;;;;;;;50.47;38.07;;;;;;;10.37;78.86;101287.16;5065507;28;20392;-82
2022/03/17 08:40:14;;;;;;;51.50;39.53;;;;;;;10.46;78.45;101293.13;5033019;28;20408;-81
2022/03/17 08:42:40;;;;;;;48.70;38.50;;;;;;;10.38;77.80;101296.94;5033720;28;20444;-81
2022/03/17 08:50:44;;;;;;;50.70;41.70;;;;;;;10.70;76.54;101299.56;5028131;28;20426;-82
2022/03/17 08:53:09;;;;;;;45.97;40.25;;;;;;;10.69;75.92;101303.31;5033086;28;20410;-82
2022/03/17 08:55:36;;;;;;;48.53;39.57;;;;;;;10.68;75.60;101301.66;5031947;28;20410;-81
2022/03/17 08:58:02;;;;;;;48.20;38.95;;;;;;;10.72;75.26;101308.28;5025608;28;20406;-82
2022/03/17 09:00:30;;;;;;;48.80;39.35;;;;;;;10.79;74.54;101309.88;5022445;28;20427;-82
2022/03/17 09:02:59;;;;;;;51.70;40.60;;;;;;;10.84;74.38;101307.31;5030255;28;20518;-82
2022/03/17 09:05:25;;;;;;;48.10;40.40;;;;;;;10.93;73.80;101316.78;5030573;28;20399;-81
2022/03/17 09:07:50;;;;;;;47.90;40.37;;;;;;;10.96;73.82;101320.13;5032814;28;20415;-81
2022/03/17 09:10:16;;;;;;;47.53;40.27;;;;;;;11.00;73.00;101324.03;5030425;28;20505;-82
2022/03/17 09:12:41;;;;;;;47.42;40.20;;;;;;;11.03;73.20;101326.28;5033008;28;20882;-81
2022/03/17 09:15:08;;;;;;;45.27;38.73;;;;;;;11.03;72.61;101329.81;5031867;28;20387;-82
2022/03/17 09:17:39;;;;;;;46.22;41.22;;;;;;;10.98;73.05;101337.81;5028358;28;20406;-82
2022/03/17 09:20:04;;;;;;;46.13;41.15;;;;;;;10.85;73.36;101340.66;5031340;28;20860;-81
2022/03/17 09:22:30;;;;;;;47.42;40.55;;;;;;;10.79;72.93;101339.69;5029823;28;20429;-82
2022/03/17 09:24:55;;;;;;;44.87;38.87;;;;;;;10.86;71.55;101343.16;5030948;28;20407;-82
2022/03/17 09:27:22;;;;;;;45.47;40.65;;;;;;;10.82;71.84;101341.13;5032736;28;20814;-82
2022/03/17 09:29:48;;;;;;;45.78;40.22;;;;;;;10.77;72.25;101343.66;5029989;28;20411;-81
2022/03/17 09:32:15;;;;;;;49.97;40.93;;;;;;;10.81;72.37;101342.16;5026200;28;20622;-82
2022/03/17 09:34:40;;;;;;;46.63;40.10;;;;;;;10.92;72.01;101344.16;5031309;28;20429;-82
2022/03/17 09:37:05;;;;;;;44.03;39.03;;;;;;;11.01;71.19;101344.66;5064354;28;20395;-82
2022/03/17 09:39:44;;;;;;;48.10;41.20;;;;;;;10.98;71.54;101343.25;5032590;28;20438;-81
2022/03/17 09:42:09;;;;;;;46.22;40.20;;;;;;;10.77;73.13;101349.09;5035218;28;20420;-82
2022/03/17 09:44:34;;;;;;;47.50;39.30;;;;;;;10.79;73.57;101349.72;5039422;28;20411;-82
2022/03/17 09:47:02;;;;;;;45.40;40.33;;;;;;;10.93;73.38;101349.31;5029757;28;20403;-82
2022/03/17 09:49:28;;;;;;;46.65;40.38;;;;;;;11.11;72.41;101363.94;5030635;28;20407;-82
2022/03/17 09:51:55;;;;;;;46.38;40.00;;;;;;;11.23;71.84;101362.16;5029041;28;20498;-84
2022/03/17 09:54:21;;;;;;;46.28;38.72;;;;;;;11.29;71.82;101356.66;5020889;28;20414;-83
2022/03/17 09:56:46;;;;;;;46.50;40.75;;;;;;;11.23;72.64;101362.16;5030281;28;20416;-83
2022/03/17 09:59:12;;;;;;;47.83;39.23;;;;;;;11.34;71.97;101362.22;5030600;28;20391;-83
2022/03/17 10:01:38;;;;;;;44.33;39.57;;;;;;;11.41;71.75;101370.28;5030063;28;20873;-81
2022/03/17 10:04:04;;;;;;;47.28;40.60;;;;;;;11.46;71.80;101376.66;5030871;28;20403;-81
2022/03/17 10:06:30;;;;;;;44.97;39.58;;;;;;;11.58;71.08;101378.63;5013565;28;20435;-82
2022/03/17 10:08:56;;;;;;;48.07;39.27;;;;;;;11.65;71.21;101374.75;5031991;28;20775;-81
2022/03/17 10:11:27;;;;;;;42.88;38.20;;;;;;;11.72;70.74;101380.94;5031619;28;20817;-81
2022/03/17 10:13:54;;;;;;;45.28;37.85;;;;;;;11.80;70.80;101377.91;5029258;28;20403;-82
2022/03/17 10:16:20;;;;;;;42.65;38.03;;;;;;;11.69;70.38;101386.78;5026359;28;20420;-82
2022/03/17 10:18:56;;;;;;;44.55;37.75;;;;;;;11.77;69.89;101385.69;5027986;28;20402;-82
2022/03/17 10:21:24;;;;;;;43.22;38.53;;;;;;;11.91;70.20;101388.00;5027790;28;20511;-82
2022/03/17 10:23:52;;;;;;;42.65;37.28;;;;;;;12.03;69.38;101393.47;5030389;28;20440;-82
2022/03/17 10:26:41;;;;;;;43.50;36.93;;;;;;;12.03;69.22;101388.03;5029458;28;20434;-82
2022/03/17 10:29:15;;;;;;;42.75;37.20;;;;;;;11.91;69.17;101389.88;5025471;28;20419;-82
2022/03/17 10:32:01;;;;;;;41.63;36.43;;;;;;;11.88;69.46;101390.34;5061140;28;20560;-82
2022/03/17 10:34:29;;;;;;;42.53;37.88;;;;;;;11.89;69.44;101392.81;5030533;28;20602;-82
2022/03/17 10:37:10;;;;;;;42.90;37.25;;;;;;;11.96;69.38;101393.56;5028364;28;20493;-82
2022/03/17 10:39:49;;;;;;;43.03;37.33;;;;;;;11.97;69.49;101399.81;5030769;28;20435;-82
2022/03/17 10:42:15;;;;;;;39.75;35.47;;;;;;;12.04;68.94;101405.16;5031003;28;20407;-81
2022/03/17 10:44:44;;;;;;;40.83;36.43;;;;;;;12.06;68.55;101409.28;5028852;28;20415;-80
2022/03/17 10:47:10;;;;;;;41.78;37.13;;;;;;;12.25;68.60;101410.06;5019723;28;20409;-82
2022/03/17 10:49:36;;;;;;;42.07;37.13;;;;;;;12.57;68.33;101405.16;5028719;28;20421;-82
2022/03/17 10:52:02;;;;;;;43.00;36.53;;;;;;;12.94;67.46;101412.03;5026900;28;20411;-82
2022/03/17 10:54:28;;;;;;;40.58;36.08;;;;;;;13.23;65.56;101408.38;5030031;28;20906;-82
2022/03/17 10:57:12;;;;;;;41.60;36.38;;;;;;;13.63;65.00;101416.56;5029000;28;20498;-82
2022/03/17 10:59:47;;;;;;;38.15;34.10;;;;;;;14.18;62.70;101410.50;5023063;28;20460;-82
2022/03/17 11:02:17;;;;;;;39.08;34.88;;;;;;;14.40;62.22;101408.75;5032857;28;20411;-82
2022/03/17 11:04:47;;;;;;;40.65;34.63;;;;;;;14.42;61.92;101415.59;5032360;28;20450;-83
2022/03/17 11:07:14;;;;;;;39.75;33.28;;;;;;;14.36;62.06;101418.47;5024727;28;20432;-83
2022/03/17 11:09:44;;;;;;;37.65;33.63;;;;;;;14.33;62.34;101421.66;5023083;28;20502;-82
2022/03/17 11:12:20;;;;;;;41.88;32.65;;;;;;;14.29;62.72;101425.97;5031467;28;20763;-82
2022/03/17 11:14:47;;;;;;;37.60;33.40;;;;;;;14.25;61.79;101430.25;5025903;28;20424;-83
2022/03/17 11:17:47;;;;;;;37.63;33.03;;;;;;;14.36;62.05;101418.47;5027807;28;20418;-82
2022/03/17 11:20:18;;;;;;;36.63;31.55;;;;;;;14.36;61.69;101432.94;5014925;28;20809;-82
2022/03/17 11:22:50;;;;;;;38.53;32.78;;;;;;;14.37;61.19;101436.50;5047569;28;20401;-82
2022/03/17 11:25:25;;;;;;;37.20;32.90;;;;;;;14.42;61.14;101442.06;5029420;28;20770;-82
2022/03/17 11:27:57;;;;;;;39.75;32.60;;;;;;;14.55;61.26;101442.53;5022390;28;20435;-82
2022/03/17 11:30:29;;;;;;;36.65;32.50;;;;;;;14.54;60.37;101446.38;5034830;28;20492;-82
2022/03/17 11:32:58;;;;;;;41.15;34.53;;;;;;;14.20;60.79;101443.78;5032824;28;20447;-82